CST,Max TemperatureF,Mean TemperatureF,Min TemperatureF,Max Dew PointF,MeanDew PointF,Min DewpointF,Max Humidity, Mean Humidity, Min Humidity, Max Sea Level PressureIn, Mean Sea Level PressureIn, Min Sea Level PressureIn, Max VisibilityMiles, Mean VisibilityMiles, Min VisibilityMiles, Max Wind SpeedMPH, Mean Wind SpeedMPH, Max Gust SpeedMPH,PrecipitationIn, CloudCover, Events, WindDirDegrees
2012-2-1,42,34,25,34,31,25,96,85,73,30.19,30.11,30.00,10,5,0,10,2,14,0.00,4,Fog,307
2012-2-2,47,35,22,36,30,19,100,83,65,30.39,30.29,30.20,8,2,0,12,3,13,0.00,2,Fog,83
2012-2-3,36,34,32,36,33,30,100,95,89,30.45,30.38,30.29,5,1,0,20,12,25,0.16,8,Fog-Rain,69
2012-2-4,40,37,34,36,33,27,92,81,70,30.31,30.22,30.17,10,6,2,22,11,25,0.10,8,Rain-Snow,50
2012-2-5,44,35,26,34,28,23,92,77,62,30.35,30.31,30.24,10,9,6,13,5,15,0.00,3,,305
2012-2-6,31,26,21,28,25,19,92,88,84,30.28,30.23,30.19,8,5,3,13,7,17,0.00,7,,259
2012-2-7,33,27,20,32,26,19,96,89,82,30.45,30.34,30.21,10,6,1,16,7,22,T,8,Snow,45
2012-2-8,33,26,19,21,17,15,81,68,54,30.47,30.42,30.37,10,10,9,16,7,20,0.00,5,,307
2012-2-9,34,24,14,25,19,11,88,72,56,30.37,30.24,30.08,10,9,7,17,8,23,0.00,4,,238
2012-2-10,34,25,16,28,19,0,82,65,47,30.38,30.09,29.95,10,8,2,23,13,30,T,8,Snow,313
2012-2-11,25,18,10,3,-1,-3,63,48,32,30.53,30.49,30.40,10,10,10,30,18,40,0.00,0,,313
2012-2-12,36,25,13,8,2,-2,73,48,23,30.51,30.41,30.26,10,10,10,18,11,28,0.00,0,,282
2012-2-13,32,23,13,30,24,7,92,71,50,30.24,29.97,29.83,10,5,1,18,8,24,0.06,8,Snow,175
2012-2-14,36,33,30,31,29,27,92,84,75,29.99,29.89,29.80,10,8,3,14,6,18,T,7,,223
2012-2-15,43,34,24,39,35,24,100,88,76,30.03,29.97,29.94,9,3,0,13,4,17,0.20,7,Fog-Rain,168
2012-2-16,47,38,29,37,31,23,100,71,41,30.19,30.09,29.98,10,5,0,22,9,26,0.00,3,Fog,284
2012-2-17,53,37,21,33,27,19,96,70,44,30.19,30.10,30.01,10,10,10,28,9,36,0.00,2,,260
2012-2-18,40,31,22,25,21,19,88,66,44,30.27,30.20,30.14,10,10,8,14,6,21,0.00,0,,347
2012-2-19,41,30,18,25,20,16,92,70,48,30.24,30.20,30.16,10,10,7,12,3,14,0.00,0,,84
2012-2-20,45,33,20,32,25,18,96,68,40,30.25,30.03,29.80,10,8,1,22,11,28,0.15,3,Snow,132
2012-2-21,49,40,31,37,32,28,100,77,53,29.76,29.69,29.61,10,8,2,24,10,31,0.24,6,Rain-Snow,230
2012-2-22,50,39,27,36,31,27,92,77,61,29.69,29.51,29.42,10,10,10,15,5,21,T,4,,220
2012-2-23,39,33,26,37,33,25,100,96,92,29.49,29.46,29.42,10,4,2,17,8,23,0.52,7,Rain-Snow,65
2012-2-24,33,29,24,32,27,17,96,82,68,30.06,29.73,29.47,10,5,1,30,17,37,0.24,8,Snow,314
2012-2-25,28,22,16,19,13,8,84,71,58,30.32,30.24,30.08,10,10,10,30,10,37,0.00,2,,297
2012-2-26,56,37,18,34,26,15,77,60,43,30.23,30.04,29.91,10,10,10,26,13,36,0.00,1,,204
2012-2-27,38,30,21,25,21,17,88,71,54,30.49,30.39,30.15,10,10,10,25,10,35,0.00,0,,288
2012-2-28,48,36,23,43,31,22,92,71,50,30.46,30.10,29.62,10,9,6,21,11,26,0.10,7,Rain,118
2012-2-29,54,44,33,50,35,27,93,72,50,29.73,29.54,29.40,10,8,2,37,22,51,0.18,6,Rain-Snow-Thunderstorm,237